sensor_id;sensor_type;location;lat;lon;timestamp;temperature;humidity
61117;DHT22;47002;50.856;6.580;2022-11-15T00:02:09;9.80;90.00
61117;DHT22;47002;50.856;6.580;2022-11-15T00:04:35;9.90;89.80
61117;DHT22;47002;50.856;6.580;2022-11-15T00:07:01;9.80;89.60
61117;DHT22;47002;50.856;6.580;2022-11-15T00:09:26;9.80;89.60
61117;DHT22;47002;50.856;6.580;2022-11-15T00:11:52;9.80;89.80
61117;DHT22;47002;50.856;6.580;2022-11-15T00:14:18;9.80;89.80
61117;DHT22;47002;50.856;6.580;2022-11-15T00:16:45;9.80;89.80
61117;DHT22;47002;50.856;6.580;2022-11-15T00:19:11;9.80;89.70
61117;DHT22;47002;50.856;6.580;2022-11-15T00:21:36;9.70;89.70
61117;DHT22;47002;50.856;6.580;2022-11-15T00:24:02;9.70;89.90
61117;DHT22;47002;50.856;6.580;2022-11-15T00:26:28;9.70;90.20
61117;DHT22;47002;50.856;6.580;2022-11-15T00:28:53;9.70;90.20
61117;DHT22;47002;50.856;6.580;2022-11-15T00:31:19;9.80;90.20
61117;DHT22;47002;50.856;6.580;2022-11-15T00:33:46;9.80;90.10
61117;DHT22;47002;50.856;6.580;2022-11-15T00:36:12;9.80;90.10
61117;DHT22;47002;50.856;6.580;2022-11-15T00:38:39;9.80;90.00
61117;DHT22;47002;50.856;6.580;2022-11-15T00:41:06;9.70;90.10
61117;DHT22;47002;50.856;6.580;2022-11-15T00:43:32;9.70;90.20
61117;DHT22;47002;50.856;6.580;2022-11-15T00:45:58;9.70;90.30
61117;DHT22;47002;50.856;6.580;2022-11-15T00:48:24;9.60;90.20
61117;DHT22;47002;50.856;6.580;2022-11-15T00:50:51;9.60;90.50
61117;DHT22;47002;50.856;6.580;2022-11-15T00:53:17;9.60;90.50
61117;DHT22;47002;50.856;6.580;2022-11-15T00:55:43;9.60;90.50
61117;DHT22;47002;50.856;6.580;2022-11-15T00:58:09;9.50;90.50
61117;DHT22;47002;50.856;6.580;2022-11-15T01:00:35;9.50;90.60
61117;DHT22;47002;50.856;6.580;2022-11-15T01:03:01;9.40;90.70
61117;DHT22;47002;50.856;6.580;2022-11-15T01:05:27;9.40;90.80
61117;DHT22;47002;50.856;6.580;2022-11-15T01:07:55;9.40;90.70
61117;DHT22;47002;50.856;6.580;2022-11-15T01:10:21;9.30;90.70
61117;DHT22;47002;50.856;6.580;2022-11-15T01:12:47;9.30;90.70
61117;DHT22;47002;50.856;6.580;2022-11-15T01:15:13;9.20;90.80
61117;DHT22;47002;50.856;6.580;2022-11-15T01:17:38;9.20;90.80
61117;DHT22;47002;50.856;6.580;2022-11-15T01:20:05;9.20;91.00
61117;DHT22;47002;50.856;6.580;2022-11-15T01:22:30;9.10;91.10
61117;DHT22;47002;50.856;6.580;2022-11-15T01:24:58;9.10;91.10
61117;DHT22;47002;50.856;6.580;2022-11-15T01:27:23;9.10;91.20
61117;DHT22;47002;50.856;6.580;2022-11-15T01:29:49;9.10;91.50
61117;DHT22;47002;50.856;6.580;2022-11-15T01:32:15;9.10;91.50
61117;DHT22;47002;50.856;6.580;2022-11-15T01:34:40;9.00;91.60
61117;DHT22;47002;50.856;6.580;2022-11-15T01:37:06;9.00;91.60
61117;DHT22;47002;50.856;6.580;2022-11-15T01:39:32;9.00;91.60
61117;DHT22;47002;50.856;6.580;2022-11-15T01:42:00;9.00;91.80
61117;DHT22;47002;50.856;6.580;2022-11-15T01:44:39;9.00;91.90
61117;DHT22;47002;50.856;6.580;2022-11-15T01:47:09;9.00;92.00
61117;DHT22;47002;50.856;6.580;2022-11-15T01:49:38;9.00;92.00
61117;DHT22;47002;50.856;6.580;2022-11-15T01:52:09;9.10;92.10
61117;DHT22;47002;50.856;6.580;2022-11-15T01:54:36;9.10;92.20
61117;DHT22;47002;50.856;6.580;2022-11-15T01:57:05;9.10;92.30
61117;DHT22;47002;50.856;6.580;2022-11-15T01:59:32;9.10;92.30
61117;DHT22;47002;50.856;6.580;2022-11-15T02:01:58;9.10;92.20
61117;DHT22;47002;50.856;6.580;2022-11-15T02:04:26;9.10;92.10
61117;DHT22;47002;50.856;6.580;2022-11-15T02:06:53;9.10;92.00
61117;DHT22;47002;50.856;6.580;2022-11-15T02:09:19;9.20;92.00
61117;DHT22;47002;50.856;6.580;2022-11-15T02:11:45;9.10;92.10
61117;DHT22;47002;50.856;6.580;2022-11-15T02:14:14;9.20;92.30
61117;DHT22;47002;50.856;6.580;2022-11-15T02:16:46;9.10;92.20
61117;DHT22;47002;50.856;6.580;2022-11-15T02:19:39;9.10;92.10
61117;DHT22;47002;50.856;6.580;2022-11-15T02:22:14;9.10;92.00
61117;DHT22;47002;50.856;6.580;2022-11-15T02:24:54;9.10;92.00
61117;DHT22;47002;50.856;6.580;2022-11-15T02:27:53;9.10;92.20
61117;DHT22;47002;50.856;6.580;2022-11-15T02:30:29;9.10;92.40
61117;DHT22;47002;50.856;6.580;2022-11-15T02:33:01;9.10;92.50
61117;DHT22;47002;50.856;6.580;2022-11-15T02:35:36;9.00;92.60
61117;DHT22;47002;50.856;6.580;2022-11-15T02:38:07;9.10;92.90
61117;DHT22;47002;50.856;6.580;2022-11-15T02:40:41;9.20;93.00
61117;DHT22;47002;50.856;6.580;2022-11-15T02:43:10;9.30;93.00
61117;DHT22;47002;50.856;6.580;2022-11-15T02:45:48;9.30;92.90
61117;DHT22;47002;50.856;6.580;2022-11-15T02:48:15;9.40;92.70
61117;DHT22;47002;50.856;6.580;2022-11-15T02:50:42;9.40;92.30
61117;DHT22;47002;50.856;6.580;2022-11-15T02:53:09;9.40;92.10
61117;DHT22;47002;50.856;6.580;2022-11-15T02:55:42;9.40;92.00
61117;DHT22;47002;50.856;6.580;2022-11-15T02:58:30;9.40;92.10
61117;DHT22;47002;50.856;6.580;2022-11-15T03:01:04;9.40;92.00
61117;DHT22;47002;50.856;6.580;2022-11-15T03:03:49;9.40;91.80
61117;DHT22;47002;50.856;6.580;2022-11-15T03:06:25;9.40;91.80
61117;DHT22;47002;50.856;6.580;2022-11-15T03:09:01;9.40;91.80
61117;DHT22;47002;50.856;6.580;2022-11-15T03:11:29;9.40;91.90
61117;DHT22;47002;50.856;6.580;2022-11-15T03:14:00;9.40;92.00
61117;DHT22;47002;50.856;6.580;2022-11-15T03:16:36;9.40;92.00
61117;DHT22;47002;50.856;6.580;2022-11-15T03:19:05;9.50;92.00
61117;DHT22;47002;50.856;6.580;2022-11-15T03:21:33;9.50;92.00
61117;DHT22;47002;50.856;6.580;2022-11-15T03:24:03;9.60;92.10
61117;DHT22;47002;50.856;6.580;2022-11-15T03:26:32;9.50;91.90
61117;DHT22;47002;50.856;6.580;2022-11-15T03:29:01;9.60;92.00
61117;DHT22;47002;50.856;6.580;2022-11-15T03:31:33;9.60;91.90
61117;DHT22;47002;50.856;6.580;2022-11-15T03:34:00;9.60;91.90
61117;DHT22;47002;50.856;6.580;2022-11-15T03:36:30;9.60;91.80
61117;DHT22;47002;50.856;6.580;2022-11-15T03:38:59;9.60;91.70
61117;DHT22;47002;50.856;6.580;2022-11-15T03:41:31;9.60;91.60
61117;DHT22;47002;50.856;6.580;2022-11-15T03:43:59;9.60;91.60
61117;DHT22;47002;50.856;6.580;2022-11-15T03:46:33;9.70;91.60
61117;DHT22;47002;50.856;6.580;2022-11-15T03:49:04;9.60;91.50
61117;DHT22;47002;50.856;6.580;2022-11-15T03:51:32;9.60;91.40
61117;DHT22;47002;50.856;6.580;2022-11-15T03:53:57;9.60;91.40
61117;DHT22;47002;50.856;6.580;2022-11-15T03:56:23;9.60;91.40
61117;DHT22;47002;50.856;6.580;2022-11-15T03:58:49;9.60;91.50
61117;DHT22;47002;50.856;6.580;2022-11-15T04:01:14;9.50;91.60
61117;DHT22;47002;50.856;6.580;2022-11-15T04:03:41;9.50;91.60
61117;DHT22;47002;50.856;6.580;2022-11-15T04:06:07;9.50;91.60
61117;DHT22;47002;50.856;6.580;2022-11-15T04:08:33;9.40;91.70
61117;DHT22;47002;50.856;6.580;2022-11-15T04:10:58;9.40;91.70
61117;DHT22;47002;50.856;6.580;2022-11-15T04:13:24;9.40;91.60
61117;DHT22;47002;50.856;6.580;2022-11-15T04:15:50;9.40;91.60
61117;DHT22;47002;50.856;6.580;2022-11-15T04:18:16;9.30;91.50
61117;DHT22;47002;50.856;6.580;2022-11-15T04:20:43;9.20;91.50
61117;DHT22;47002;50.856;6.580;2022-11-15T04:23:10;9.10;91.60
61117;DHT22;47002;50.856;6.580;2022-11-15T04:25:36;9.10;91.70
61117;DHT22;47002;50.856;6.580;2022-11-15T04:28:02;9.00;91.80
61117;DHT22;47002;50.856;6.580;2022-11-15T04:30:28;9.00;91.90
61117;DHT22;47002;50.856;6.580;2022-11-15T04:32:53;8.90;92.10
61117;DHT22;47002;50.856;6.580;2022-11-15T04:35:19;8.90;92.30
61117;DHT22;47002;50.856;6.580;2022-11-15T04:37:46;8.90;92.30
61117;DHT22;47002;50.856;6.580;2022-11-15T04:40:12;8.90;92.40
61117;DHT22;47002;50.856;6.580;2022-11-15T04:42:37;8.80;92.50
61117;DHT22;47002;50.856;6.580;2022-11-15T04:45:06;8.90;92.70
61117;DHT22;47002;50.856;6.580;2022-11-15T04:47:32;8.90;92.90
61117;DHT22;47002;50.856;6.580;2022-11-15T04:49:57;8.90;93.00
61117;DHT22;47002;50.856;6.580;2022-11-15T04:52:23;8.90;93.00
61117;DHT22;47002;50.856;6.580;2022-11-15T04:54:50;9.00;93.20
61117;DHT22;47002;50.856;6.580;2022-11-15T04:57:15;9.00;93.20
61117;DHT22;47002;50.856;6.580;2022-11-15T04:59:41;9.10;93.40
61117;DHT22;47002;50.856;6.580;2022-11-15T05:02:07;9.10;93.40
61117;DHT22;47002;50.856;6.580;2022-11-15T05:04:32;9.10;93.30
61117;DHT22;47002;50.856;6.580;2022-11-15T05:06:58;9.10;93.10
61117;DHT22;47002;50.856;6.580;2022-11-15T05:09:24;9.10;92.90
61117;DHT22;47002;50.856;6.580;2022-11-15T05:11:51;9.10;92.80
61117;DHT22;47002;50.856;6.580;2022-11-15T05:14:16;9.10;92.60
61117;DHT22;47002;50.856;6.580;2022-11-15T05:16:42;9.00;92.60
61117;DHT22;47002;50.856;6.580;2022-11-15T05:19:08;8.90;92.50
61117;DHT22;47002;50.856;6.580;2022-11-15T05:21:34;8.80;92.50
61117;DHT22;47002;50.856;6.580;2022-11-15T05:24:00;8.80;92.40
61117;DHT22;47002;50.856;6.580;2022-11-15T05:26:26;8.60;92.40
61117;DHT22;47002;50.856;6.580;2022-11-15T05:28:54;8.50;92.40
61117;DHT22;47002;50.856;6.580;2022-11-15T05:31:20;8.40;92.40
61117;DHT22;47002;50.856;6.580;2022-11-15T05:33:46;8.30;92.40
61117;DHT22;47002;50.856;6.580;2022-11-15T05:36:15;8.20;92.50
61117;DHT22;47002;50.856;6.580;2022-11-15T05:38:42;8.10;92.60
61117;DHT22;47002;50.856;6.580;2022-11-15T05:41:08;7.90;92.70
61117;DHT22;47002;50.856;6.580;2022-11-15T05:43:35;7.80;92.80
61117;DHT22;47002;50.856;6.580;2022-11-15T05:46:05;7.70;92.90
61117;DHT22;47002;50.856;6.580;2022-11-15T05:48:31;7.60;92.90
61117;DHT22;47002;50.856;6.580;2022-11-15T05:50:58;7.50;93.10
61117;DHT22;47002;50.856;6.580;2022-11-15T05:53:25;7.40;93.30
61117;DHT22;47002;50.856;6.580;2022-11-15T05:55:51;7.30;93.30
61117;DHT22;47002;50.856;6.580;2022-11-15T05:58:17;7.20;93.30
61117;DHT22;47002;50.856;6.580;2022-11-15T06:00:43;7.10;93.50
61117;DHT22;47002;50.856;6.580;2022-11-15T06:03:10;7.10;93.70
61117;DHT22;47002;50.856;6.580;2022-11-15T06:05:36;7.00;93.90
61117;DHT22;47002;50.856;6.580;2022-11-15T06:08:02;7.00;94.00
61117;DHT22;47002;50.856;6.580;2022-11-15T06:10:27;6.90;94.00
61117;DHT22;47002;50.856;6.580;2022-11-15T06:12:57;6.90;94.10
61117;DHT22;47002;50.856;6.580;2022-11-15T06:15:22;6.80;94.10
61117;DHT22;47002;50.856;6.580;2022-11-15T06:17:48;6.80;94.20
61117;DHT22;47002;50.856;6.580;2022-11-15T06:20:15;6.70;94.20
61117;DHT22;47002;50.856;6.580;2022-11-15T06:22:41;6.70;94.30
61117;DHT22;47002;50.856;6.580;2022-11-15T06:25:07;6.60;94.30
61117;DHT22;47002;50.856;6.580;2022-11-15T06:27:32;6.60;94.30
61117;DHT22;47002;50.856;6.580;2022-11-15T06:29:58;6.50;94.30
61117;DHT22;47002;50.856;6.580;2022-11-15T06:32:24;6.40;94.30
61117;DHT22;47002;50.856;6.580;2022-11-15T06:34:49;6.40;94.40
61117;DHT22;47002;50.856;6.580;2022-11-15T06:37:16;6.40;94.40
61117;DHT22;47002;50.856;6.580;2022-11-15T06:39:42;6.30;94.50
61117;DHT22;47002;50.856;6.580;2022-11-15T06:42:08;6.30;94.50
61117;DHT22;47002;50.856;6.580;2022-11-15T06:44:33;6.30;94.60
61117;DHT22;47002;50.856;6.580;2022-11-15T06:46:59;6.50;95.20
61117;DHT22;47002;50.856;6.580;2022-11-15T06:49:25;6.70;95.00
61117;DHT22;47002;50.856;6.580;2022-11-15T06:51:50;6.70;94.70
61117;DHT22;47002;50.856;6.580;2022-11-15T06:54:17;6.70;94.30
61117;DHT22;47002;50.856;6.580;2022-11-15T06:56:43;6.60;93.90
61117;DHT22;47002;50.856;6.580;2022-11-15T06:59:08;6.50;93.70
61117;DHT22;47002;50.856;6.580;2022-11-15T07:01:34;6.40;93.50
61117;DHT22;47002;50.856;6.580;2022-11-15T07:04:00;6.40;93.50
61117;DHT22;47002;50.856;6.580;2022-11-15T07:06:25;6.40;93.60
61117;DHT22;47002;50.856;6.580;2022-11-15T07:08:51;6.30;93.60
61117;DHT22;47002;50.856;6.580;2022-11-15T07:11:18;6.40;93.70
61117;DHT22;47002;50.856;6.580;2022-11-15T07:13:44;6.40;93.80
61117;DHT22;47002;50.856;6.580;2022-11-15T07:16:10;6.40;93.90
61117;DHT22;47002;50.856;6.580;2022-11-15T07:18:37;6.40;94.00
61117;DHT22;47002;50.856;6.580;2022-11-15T07:21:03;6.50;94.10
61117;DHT22;47002;50.856;6.580;2022-11-15T07:23:29;6.50;94.20
61117;DHT22;47002;50.856;6.580;2022-11-15T07:25:56;6.50;94.20
61117;DHT22;47002;50.856;6.580;2022-11-15T07:28:23;6.60;94.10
61117;DHT22;47002;50.856;6.580;2022-11-15T07:30:49;6.60;94.10
61117;DHT22;47002;50.856;6.580;2022-11-15T07:33:15;6.60;94.00
61117;DHT22;47002;50.856;6.580;2022-11-15T07:35:40;6.60;94.00
61117;DHT22;47002;50.856;6.580;2022-11-15T07:38:06;6.70;93.90
61117;DHT22;47002;50.856;6.580;2022-11-15T07:40:32;6.70;93.90
61117;DHT22;47002;50.856;6.580;2022-11-15T07:43:01;6.70;93.70
61117;DHT22;47002;50.856;6.580;2022-11-15T07:45:28;6.70;93.60
61117;DHT22;47002;50.856;6.580;2022-11-15T07:47:54;6.70;93.60
61117;DHT22;47002;50.856;6.580;2022-11-15T07:50:20;6.80;93.60
61117;DHT22;47002;50.856;6.580;2022-11-15T07:52:46;6.80;93.60
61117;DHT22;47002;50.856;6.580;2022-11-15T07:55:11;6.90;93.60
61117;DHT22;47002;50.856;6.580;2022-11-15T07:57:37;6.90;93.60
61117;DHT22;47002;50.856;6.580;2022-11-15T08:00:04;7.00;93.50
61117;DHT22;47002;50.856;6.580;2022-11-15T08:02:31;7.00;93.30
61117;DHT22;47002;50.856;6.580;2022-11-15T08:04:57;7.00;93.20
61117;DHT22;47002;50.856;6.580;2022-11-15T08:07:23;7.10;93.10
61117;DHT22;47002;50.856;6.580;2022-11-15T08:09:48;7.10;93.00
61117;DHT22;47002;50.856;6.580;2022-11-15T08:12:14;7.10;92.80
61117;DHT22;47002;50.856;6.580;2022-11-15T08:14:40;7.20;92.60
61117;DHT22;47002;50.856;6.580;2022-11-15T08:17:05;7.20;92.40
61117;DHT22;47002;50.856;6.580;2022-11-15T08:19:32;7.30;92.30
61117;DHT22;47002;50.856;6.580;2022-11-15T08:21:58;7.40;92.20
61117;DHT22;47002;50.856;6.580;2022-11-15T08:24:24;7.50;92.00
61117;DHT22;47002;50.856;6.580;2022-11-15T08:26:49;7.60;91.90
61117;DHT22;47002;50.856;6.580;2022-11-15T08:29:15;7.70;91.60
61117;DHT22;47002;50.856;6.580;2022-11-15T08:31:41;7.70;91.20
61117;DHT22;47002;50.856;6.580;2022-11-15T08:34:06;7.80;90.90
61117;DHT22;47002;50.856;6.580;2022-11-15T08:36:33;7.90;90.50
61117;DHT22;47002;50.856;6.580;2022-11-15T08:38:59;8.10;90.20
61117;DHT22;47002;50.856;6.580;2022-11-15T08:41:28;8.20;90.10
61117;DHT22;47002;50.856;6.580;2022-11-15T08:43:55;8.40;89.50
61117;DHT22;47002;50.856;6.580;2022-11-15T08:46:21;8.60;89.00
61117;DHT22;47002;50.856;6.580;2022-11-15T08:48:47;8.70;88.50
61117;DHT22;47002;50.856;6.580;2022-11-15T08:51:12;8.70;87.80
61117;DHT22;47002;50.856;6.580;2022-11-15T08:53:40;8.80;87.30
61117;DHT22;47002;50.856;6.580;2022-11-15T08:56:07;8.90;86.90
61117;DHT22;47002;50.856;6.580;2022-11-15T08:58:33;9.00;86.40
61117;DHT22;47002;50.856;6.580;2022-11-15T09:00:59;9.10;86.00
61117;DHT22;47002;50.856;6.580;2022-11-15T09:03:25;9.20;85.80
61117;DHT22;47002;50.856;6.580;2022-11-15T09:05:54;9.30;85.50
61117;DHT22;47002;50.856;6.580;2022-11-15T09:08:20;9.40;85.40
61117;DHT22;47002;50.856;6.580;2022-11-15T09:10:47;9.50;85.30
61117;DHT22;47002;50.856;6.580;2022-11-15T09:13:13;9.60;85.00
61117;DHT22;47002;50.856;6.580;2022-11-15T09:15:38;9.60;84.30
61117;DHT22;47002;50.856;6.580;2022-11-15T09:18:04;9.70;84.10
61117;DHT22;47002;50.856;6.580;2022-11-15T09:20:30;9.80;84.20
61117;DHT22;47002;50.856;6.580;2022-11-15T09:22:59;9.80;83.50
61117;DHT22;47002;50.856;6.580;2022-11-15T09:25:25;9.90;82.00
61117;DHT22;47002;50.856;6.580;2022-11-15T09:27:52;10.00;81.30
61117;DHT22;47002;50.856;6.580;2022-11-15T09:30:18;10.10;81.20
61117;DHT22;47002;50.856;6.580;2022-11-15T09:32:43;10.10;80.80
61117;DHT22;47002;50.856;6.580;2022-11-15T09:35:09;10.20;80.40
61117;DHT22;47002;50.856;6.580;2022-11-15T09:37:35;10.40;80.30
61117;DHT22;47002;50.856;6.580;2022-11-15T09:40:01;10.40;80.20
61117;DHT22;47002;50.856;6.580;2022-11-15T09:42:37;10.50;78.60
61117;DHT22;47002;50.856;6.580;2022-11-15T09:45:18;10.60;77.70
61117;DHT22;47002;50.856;6.580;2022-11-15T09:50:41;10.70;78.40
61117;DHT22;47002;50.856;6.580;2022-11-15T09:53:12;10.80;78.50
61117;DHT22;47002;50.856;6.580;2022-11-15T09:55:43;11.00;77.50
61117;DHT22;47002;50.856;6.580;2022-11-15T09:58:18;11.10;78.00
61117;DHT22;47002;50.856;6.580;2022-11-15T10:00:49;11.30;76.40
61117;DHT22;47002;50.856;6.580;2022-11-15T10:03:17;11.40;72.60
61117;DHT22;47002;50.856;6.580;2022-11-15T10:05:45;11.40;71.30
61117;DHT22;47002;50.856;6.580;2022-11-15T10:08:28;11.40;69.10
61117;DHT22;47002;50.856;6.580;2022-11-15T10:10:58;11.40;69.30
61117;DHT22;47002;50.856;6.580;2022-11-15T10:13:28;11.40;67.90
61117;DHT22;47002;50.856;6.580;2022-11-15T10:16:04;11.40;67.30
61117;DHT22;47002;50.856;6.580;2022-11-15T10:18:35;11.50;66.60
61117;DHT22;47002;50.856;6.580;2022-11-15T10:21:15;11.60;67.00
61117;DHT22;47002;50.856;6.580;2022-11-15T10:23:42;11.60;66.10
61117;DHT22;47002;50.856;6.580;2022-11-15T10:26:11;11.70;65.20
61117;DHT22;47002;50.856;6.580;2022-11-15T10:28:38;11.70;65.30
61117;DHT22;47002;50.856;6.580;2022-11-15T10:31:21;11.80;64.10
61117;DHT22;47002;50.856;6.580;2022-11-15T10:33:47;11.80;63.30
61117;DHT22;47002;50.856;6.580;2022-11-15T10:36:19;11.90;63.50
61117;DHT22;47002;50.856;6.580;2022-11-15T10:39:03;12.00;63.30
61117;DHT22;47002;50.856;6.580;2022-11-15T10:41:40;12.10;61.20
61117;DHT22;47002;50.856;6.580;2022-11-15T10:44:19;12.10;60.60
61117;DHT22;47002;50.856;6.580;2022-11-15T10:46:48;12.10;60.70
61117;DHT22;47002;50.856;6.580;2022-11-15T10:49:15;12.10;61.10
61117;DHT22;47002;50.856;6.580;2022-11-15T10:51:44;12.10;60.20
61117;DHT22;47002;50.856;6.580;2022-11-15T10:54:12;12.10;61.50
61117;DHT22;47002;50.856;6.580;2022-11-15T10:56:39;12.10;60.70
61117;DHT22;47002;50.856;6.580;2022-11-15T10:59:15;12.20;60.40
61117;DHT22;47002;50.856;6.580;2022-11-15T11:01:47;12.30;60.10
61117;DHT22;47002;50.856;6.580;2022-11-15T11:04:13;12.40;59.80
61117;DHT22;47002;50.856;6.580;2022-11-15T11:06:46;12.50;60.10
61117;DHT22;47002;50.856;6.580;2022-11-15T11:09:27;12.60;61.70
61117;DHT22;47002;50.856;6.580;2022-11-15T11:11:53;12.90;61.60
61117;DHT22;47002;50.856;6.580;2022-11-15T11:14:22;13.10;58.50
61117;DHT22;47002;50.856;6.580;2022-11-15T11:16:51;13.20;57.50
61117;DHT22;47002;50.856;6.580;2022-11-15T11:19:31;13.20;58.00
61117;DHT22;47002;50.856;6.580;2022-11-15T11:22:06;13.40;58.30
61117;DHT22;47002;50.856;6.580;2022-11-15T11:24:39;13.60;57.30
61117;DHT22;47002;50.856;6.580;2022-11-15T11:27:21;13.60;58.10
61117;DHT22;47002;50.856;6.580;2022-11-15T11:29:58;13.60;57.00
61117;DHT22;47002;50.856;6.580;2022-11-15T11:32:37;13.60;56.80
61117;DHT22;47002;50.856;6.580;2022-11-15T11:35:11;13.50;57.70
61117;DHT22;47002;50.856;6.580;2022-11-15T11:37:46;13.50;57.70
61117;DHT22;47002;50.856;6.580;2022-11-15T11:40:20;13.40;58.60
61117;DHT22;47002;50.856;6.580;2022-11-15T11:42:54;13.40;58.90
61117;DHT22;47002;50.856;6.580;2022-11-15T11:45:31;13.50;59.90
61117;DHT22;47002;50.856;6.580;2022-11-15T11:48:10;13.60;59.70
61117;DHT22;47002;50.856;6.580;2022-11-15T11:50:38;13.70;59.70
61117;DHT22;47002;50.856;6.580;2022-11-15T11:53:09;13.80;60.10
61117;DHT22;47002;50.856;6.580;2022-11-15T11:55:38;13.90;59.20
61117;DHT22;47002;50.856;6.580;2022-11-15T11:58:13;14.10;59.50
61117;DHT22;47002;50.856;6.580;2022-11-15T12:00:41;14.10;59.90
61117;DHT22;47002;50.856;6.580;2022-11-15T12:03:14;14.20;58.70
61117;DHT22;47002;50.856;6.580;2022-11-15T12:05:44;14.20;58.00
61117;DHT22;47002;50.856;6.580;2022-11-15T12:08:24;14.20;58.70
61117;DHT22;47002;50.856;6.580;2022-11-15T12:10:58;14.10;58.60
61117;DHT22;47002;50.856;6.580;2022-11-15T12:13:26;14.10;59.40
61117;DHT22;47002;50.856;6.580;2022-11-15T12:15:58;14.00;58.90
61117;DHT22;47002;50.856;6.580;2022-11-15T12:18:26;14.00;58.70
61117;DHT22;47002;50.856;6.580;2022-11-15T12:21:07;13.90;59.50
61117;DHT22;47002;50.856;6.580;2022-11-15T12:23:40;13.90;59.90
61117;DHT22;47002;50.856;6.580;2022-11-15T12:26:11;13.90;60.50
61117;DHT22;47002;50.856;6.580;2022-11-15T12:28:44;13.80;61.20
61117;DHT22;47002;50.856;6.580;2022-11-15T12:31:14;13.80;62.20
61117;DHT22;47002;50.856;6.580;2022-11-15T12:33:45;13.80;62.50
61117;DHT22;47002;50.856;6.580;2022-11-15T12:36:30;13.80;62.80
61117;DHT22;47002;50.856;6.580;2022-11-15T12:38:57;13.90;62.50
61117;DHT22;47002;50.856;6.580;2022-11-15T12:41:24;13.90;62.00
61117;DHT22;47002;50.856;6.580;2022-11-15T12:43:50;14.00;62.20
61117;DHT22;47002;50.856;6.580;2022-11-15T12:46:22;14.00;62.20
61117;DHT22;47002;50.856;6.580;2022-11-15T12:48:53;14.00;62.50
61117;DHT22;47002;50.856;6.580;2022-11-15T12:51:21;13.90;63.10
61117;DHT22;47002;50.856;6.580;2022-11-15T12:53:47;13.80;63.30
61117;DHT22;47002;50.856;6.580;2022-11-15T12:56:22;13.80;63.40
61117;DHT22;47002;50.856;6.580;2022-11-15T12:58:54;13.70;63.50
61117;DHT22;47002;50.856;6.580;2022-11-15T13:04:28;13.40;64.30
61117;DHT22;47002;50.856;6.580;2022-11-15T13:06:55;13.30;65.40
61117;DHT22;47002;50.856;6.580;2022-11-15T13:09:52;13.20;65.00
61117;DHT22;47002;50.856;6.580;2022-11-15T13:12:52;13.10;65.80
61117;DHT22;47002;50.856;6.580;2022-11-15T13:15:34;13.10;66.00
61117;DHT22;47002;50.856;6.580;2022-11-15T13:18:30;13.10;66.20
61117;DHT22;47002;50.856;6.580;2022-11-15T13:20:57;13.10;66.20
61117;DHT22;47002;50.856;6.580;2022-11-15T13:23:23;13.10;66.80
61117;DHT22;47002;50.856;6.580;2022-11-15T13:26:05;13.00;67.20
61117;DHT22;47002;50.856;6.580;2022-11-15T13:28:34;13.10;68.10
61117;DHT22;47002;50.856;6.580;2022-11-15T13:31:13;13.10;68.60
61117;DHT22;47002;50.856;6.580;2022-11-15T13:33:39;13.20;67.30
61117;DHT22;47002;50.856;6.580;2022-11-15T13:36:15;13.20;67.20
61117;DHT22;47002;50.856;6.580;2022-11-15T13:38:41;13.30;67.00
61117;DHT22;47002;50.856;6.580;2022-11-15T13:41:17;13.30;67.30
61117;DHT22;47002;50.856;6.580;2022-11-15T13:43:43;13.30;67.60
61117;DHT22;47002;50.856;6.580;2022-11-15T13:46:12;13.30;67.40
61117;DHT22;47002;50.856;6.580;2022-11-15T13:48:39;13.30;67.40
61117;DHT22;47002;50.856;6.580;2022-11-15T13:51:09;13.30;67.30
61117;DHT22;47002;50.856;6.580;2022-11-15T13:53:37;13.20;67.20
61117;DHT22;47002;50.856;6.580;2022-11-15T13:56:06;13.20;67.50
61117;DHT22;47002;50.856;6.580;2022-11-15T13:58:31;13.20;67.90
61117;DHT22;47002;50.856;6.580;2022-11-15T14:01:02;13.20;68.00
61117;DHT22;47002;50.856;6.580;2022-11-15T14:03:30;13.10;68.10
61117;DHT22;47002;50.856;6.580;2022-11-15T14:06:04;13.10;67.60
61117;DHT22;47002;50.856;6.580;2022-11-15T14:08:32;13.00;68.30
61117;DHT22;47002;50.856;6.580;2022-11-15T14:11:09;13.00;69.10
61117;DHT22;47002;50.856;6.580;2022-11-15T14:13:35;13.00;69.40
61117;DHT22;47002;50.856;6.580;2022-11-15T14:16:13;13.00;69.40
61117;DHT22;47002;50.856;6.580;2022-11-15T14:18:42;13.00;69.90
61117;DHT22;47002;50.856;6.580;2022-11-15T14:21:08;13.00;69.40
61117;DHT22;47002;50.856;6.580;2022-11-15T14:23:35;13.00;69.30
61117;DHT22;47002;50.856;6.580;2022-11-15T14:26:01;12.90;69.40
61117;DHT22;47002;50.856;6.580;2022-11-15T14:28:31;13.00;69.50
61117;DHT22;47002;50.856;6.580;2022-11-15T14:30:58;12.90;69.60
61117;DHT22;47002;50.856;6.580;2022-11-15T14:33:28;12.90;69.70
61117;DHT22;47002;50.856;6.580;2022-11-15T14:36:03;12.90;70.00
61117;DHT22;47002;50.856;6.580;2022-11-15T14:38:29;12.80;70.40
61117;DHT22;47002;50.856;6.580;2022-11-15T14:40:55;12.70;70.10
61117;DHT22;47002;50.856;6.580;2022-11-15T14:43:21;12.70;70.40
61117;DHT22;47002;50.856;6.580;2022-11-15T14:45:46;12.70;70.50
61117;DHT22;47002;50.856;6.580;2022-11-15T14:48:12;12.60;70.50
61117;DHT22;47002;50.856;6.580;2022-11-15T14:50:38;12.50;70.90
61117;DHT22;47002;50.856;6.580;2022-11-15T14:53:05;12.50;71.30
61117;DHT22;47002;50.856;6.580;2022-11-15T14:55:33;12.40;71.70
61117;DHT22;47002;50.856;6.580;2022-11-15T14:57:59;12.30;72.00
61117;DHT22;47002;50.856;6.580;2022-11-15T15:00:25;12.20;72.30
61117;DHT22;47002;50.856;6.580;2022-11-15T15:02:53;12.20;72.60
61117;DHT22;47002;50.856;6.580;2022-11-15T15:05:20;12.10;72.80
61117;DHT22;47002;50.856;6.580;2022-11-15T15:07:47;12.10;73.00
61117;DHT22;47002;50.856;6.580;2022-11-15T15:10:15;12.00;73.10
61117;DHT22;47002;50.856;6.580;2022-11-15T15:12:41;12.00;73.20
61117;DHT22;47002;50.856;6.580;2022-11-15T15:15:12;11.90;73.30
61117;DHT22;47002;50.856;6.580;2022-11-15T15:17:39;11.90;73.60
61117;DHT22;47002;50.856;6.580;2022-11-15T15:20:05;11.90;74.10
61117;DHT22;47002;50.856;6.580;2022-11-15T15:22:31;11.80;74.10
61117;DHT22;47002;50.856;6.580;2022-11-15T15:24:57;11.80;74.20
61117;DHT22;47002;50.856;6.580;2022-11-15T15:27:24;11.70;74.40
61117;DHT22;47002;50.856;6.580;2022-11-15T15:29:49;11.70;74.60
61117;DHT22;47002;50.856;6.580;2022-11-15T15:32:15;11.60;74.90
61117;DHT22;47002;50.856;6.580;2022-11-15T15:34:41;11.60;75.20
61117;DHT22;47002;50.856;6.580;2022-11-15T15:37:21;11.60;75.40
61117;DHT22;47002;50.856;6.580;2022-11-15T15:39:47;11.60;75.70
61117;DHT22;47002;50.856;6.580;2022-11-15T15:42:12;11.50;75.90
61117;DHT22;47002;50.856;6.580;2022-11-15T15:44:39;11.50;75.80
61117;DHT22;47002;50.856;6.580;2022-11-15T15:47:10;11.40;75.90
61117;DHT22;47002;50.856;6.580;2022-11-15T15:49:36;11.40;76.10
61117;DHT22;47002;50.856;6.580;2022-11-15T15:52:02;11.40;76.20
61117;DHT22;47002;50.856;6.580;2022-11-15T15:54:27;11.40;76.20
61117;DHT22;47002;50.856;6.580;2022-11-15T15:56:53;11.40;77.20